sensor_id;sensor_type;location;lat;lon;timestamp;pressure;altitude;pressure_sealevel;temperature
79495;BMP180;68951;53.130;18.104;2023-07-29T18:36:36;100196.00;;;
79495;BMP180;68951;53.130;18.104;2023-07-29T18:39:03;100192.40;;;
79495;BMP180;68951;53.130;18.104;2023-07-29T18:41:32;100187.80;;;
79495;BMP180;68951;53.130;18.104;2023-07-29T18:43:59;100183.60;;;
79495;BMP180;68951;53.130;18.104;2023-07-29T18:46:26;100179.80;;;
79495;BMP180;68951;53.130;18.104;2023-07-29T18:48:54;100171.60;;;
79495;BMP180;68951;53.130;18.104;2023-07-29T18:51:22;100160.80;;;
79495;BMP180;68951;53.130;18.104;2023-07-29T18:53:49;100151.80;;;
79495;BMP180;68951;53.130;18.104;2023-07-29T18:56:16;100155.20;;;
79495;BMP180;68951;53.130;18.104;2023-07-29T18:58:42;100173.60;;;
79495;BMP180;68951;53.130;18.104;2023-07-29T19:01:09;100194.20;;;
79495;BMP180;68951;53.130;18.104;2023-07-29T19:03:37;100201.20;;;
79495;BMP180;68951;53.130;18.104;2023-07-29T19:06:04;100189.40;;;
79495;BMP180;68951;53.130;18.104;2023-07-29T19:08:31;100173.80;;;
79495;BMP180;68951;53.130;18.104;2023-07-29T19:10:58;100156.20;;;
79495;BMP180;68951;53.130;18.104;2023-07-29T19:13:25;100167.40;;;
79495;BMP180;68951;53.130;18.104;2023-07-29T19:15:53;100148.20;;;
79495;BMP180;68951;53.130;18.104;2023-07-29T19:18:25;100142.20;;;
79495;BMP180;68951;53.130;18.104;2023-07-29T19:20:53;100135.60;;;
79495;BMP180;68951;53.130;18.104;2023-07-29T19:23:20;100133.00;;;
79495;BMP180;68951;53.130;18.104;2023-07-29T19:25:48;100131.00;;;
79495;BMP180;68951;53.130;18.104;2023-07-29T19:28:16;100131.40;;;
79495;BMP180;68951;53.130;18.104;2023-07-29T19:30:44;100129.20;;;
79495;BMP180;68951;53.130;18.104;2023-07-29T19:33:11;100133.20;;;
79495;BMP180;68951;53.130;18.104;2023-07-29T19:35:39;100132.40;;;
79495;BMP180;68951;53.130;18.104;2023-07-29T19:38:05;100128.40;;;
79495;BMP180;68951;53.130;18.104;2023-07-29T19:40:33;100125.00;;;
79495;BMP180;68951;53.130;18.104;2023-07-29T19:43:03;100128.00;;;
79495;BMP180;68951;53.130;18.104;2023-07-29T19:45:30;100116.40;;;
79495;BMP180;68951;53.130;18.104;2023-07-29T19:47:57;100112.60;;;
79495;BMP180;68951;53.130;18.104;2023-07-29T19:50:24;100107.40;;;
79495;BMP180;68951;53.130;18.104;2023-07-29T19:52:51;100102.20;;;
79495;BMP180;68951;53.130;18.104;2023-07-29T19:55:18;100102.60;;;
79495;BMP180;68951;53.130;18.104;2023-07-29T19:57:44;100103.60;;;
79495;BMP180;68951;53.130;18.104;2023-07-29T20:00:12;100106.00;;;
79495;BMP180;68951;53.130;18.104;2023-07-29T20:02:40;100109.40;;;
79495;BMP180;68951;53.130;18.104;2023-07-29T20:05:08;100111.40;;;
79495;BMP180;68951;53.130;18.104;2023-07-29T20:07:35;100122.20;;;
79495;BMP180;68951;53.130;18.104;2023-07-29T20:10:02;100124.40;;;
79495;BMP180;68951;53.130;18.104;2023-07-29T20:12:29;100123.00;;;
79495;BMP180;68951;53.130;18.104;2023-07-29T20:17:47;100126.00;;;
79495;BMP180;68951;53.130;18.104;2023-07-29T20:20:13;100120.60;;;
79495;BMP180;68951;53.130;18.104;2023-07-29T20:22:40;100118.20;;;
79495;BMP180;68951;53.130;18.104;2023-07-29T20:25:07;100120.00;;;
79495;BMP180;68951;53.130;18.104;2023-07-29T20:27:34;100123.60;;;
79495;BMP180;68951;53.130;18.104;2023-07-29T20:30:02;100121.80;;;
79495;BMP180;68951;53.130;18.104;2023-07-29T20:32:29;100117.20;;;
79495;BMP180;68951;53.130;18.104;2023-07-29T20:34:56;100124.40;;;
79495;BMP180;68951;53.130;18.104;2023-07-29T20:37:23;100126.40;;;
79495;BMP180;68951;53.130;18.104;2023-07-29T20:39:50;100122.00;;;
79495;BMP180;68951;53.130;18.104;2023-07-29T20:42:17;100124.40;;;
79495;BMP180;68951;53.130;18.104;2023-07-29T20:44:44;100129.40;;;
79495;BMP180;68951;53.130;18.104;2023-07-29T20:47:11;100130.20;;;
79495;BMP180;68951;53.130;18.104;2023-07-29T20:49:37;100128.20;;;
79495;BMP180;68951;53.130;18.104;2023-07-29T20:52:05;100116.60;;;
79495;BMP180;68951;53.130;18.104;2023-07-29T20:54:32;100116.40;;;
79495;BMP180;68951;53.130;18.104;2023-07-29T20:56:59;100126.20;;;
79495;BMP180;68951;53.130;18.104;2023-07-29T20:59:26;100123.40;;;
79495;BMP180;68951;53.130;18.104;2023-07-29T21:01:52;100126.00;;;
79495;BMP180;68951;53.130;18.104;2023-07-29T21:04:20;100134.60;;;
79495;BMP180;68951;53.130;18.104;2023-07-29T21:06:47;100139.20;;;
79495;BMP180;68951;53.130;18.104;2023-07-29T21:09:13;100137.80;;;
79495;BMP180;68951;53.130;18.104;2023-07-29T21:11:41;100144.20;;;
79495;BMP180;68951;53.130;18.104;2023-07-29T21:14:07;100154.00;;;
79495;BMP180;68951;53.130;18.104;2023-07-29T21:16:34;100156.40;;;
79495;BMP180;68951;53.130;18.104;2023-07-29T21:19:01;100161.40;;;
79495;BMP180;68951;53.130;18.104;2023-07-29T21:21:28;100155.60;;;
79495;BMP180;68951;53.130;18.104;2023-07-29T21:23:55;100156.20;;;
79495;BMP180;68951;53.130;18.104;2023-07-29T21:26:22;100155.60;;;
79495;BMP180;68951;53.130;18.104;2023-07-29T21:28:49;100155.20;;;
79495;BMP180;68951;53.130;18.104;2023-07-29T21:31:15;100156.60;;;
79495;BMP180;68951;53.130;18.104;2023-07-29T21:33:42;100152.80;;;
79495;BMP180;68951;53.130;18.104;2023-07-29T21:36:09;100150.60;;;
79495;BMP180;68951;53.130;18.104;2023-07-29T21:38:36;100162.60;;;
79495;BMP180;68951;53.130;18.104;2023-07-29T21:41:02;100159.40;;;
79495;BMP180;68951;53.130;18.104;2023-07-29T21:43:29;100161.00;;;
79495;BMP180;68951;53.130;18.104;2023-07-29T21:45:56;100157.40;;;
79495;BMP180;68951;53.130;18.104;2023-07-29T21:48:23;100166.40;;;
79495;BMP180;68951;53.130;18.104;2023-07-29T21:50:53;100172.00;;;
79495;BMP180;68951;53.130;18.104;2023-07-29T21:53:21;100173.80;;;
79495;BMP180;68951;53.130;18.104;2023-07-29T21:55:48;100180.20;;;
79495;BMP180;68951;53.130;18.104;2023-07-29T21:58:14;100185.80;;;
79495;BMP180;68951;53.130;18.104;2023-07-29T22:00:41;100192.00;;;
79495;BMP180;68951;53.130;18.104;2023-07-29T22:03:08;100196.80;;;
79495;BMP180;68951;53.130;18.104;2023-07-29T22:05:35;100195.00;;;
79495;BMP180;68951;53.130;18.104;2023-07-29T22:08:02;100192.00;;;
79495;BMP180;68951;53.130;18.104;2023-07-29T22:10:29;100194.40;;;
79495;BMP180;68951;53.130;18.104;2023-07-29T22:12:56;100194.40;;;
79495;BMP180;68951;53.130;18.104;2023-07-29T22:15:23;100194.80;;;
79495;BMP180;68951;53.130;18.104;2023-07-29T22:17:49;100203.60;;;
79495;BMP180;68951;53.130;18.104;2023-07-29T22:20:16;100199.60;;;
79495;BMP180;68951;53.130;18.104;2023-07-29T22:22:43;100207.00;;;
79495;BMP180;68951;53.130;18.104;2023-07-29T22:25:10;100200.40;;;
79495;BMP180;68951;53.130;18.104;2023-07-29T22:27:37;100198.60;;;
79495;BMP180;68951;53.130;18.104;2023-07-29T22:30:04;100203.60;;;
79495;BMP180;68951;53.130;18.104;2023-07-29T22:32:31;100202.40;;;
79495;BMP180;68951;53.130;18.104;2023-07-29T22:34:58;100202.20;;;
79495;BMP180;68951;53.130;18.104;2023-07-29T22:37:25;100199.00;;;
79495;BMP180;68951;53.130;18.104;2023-07-29T22:39:52;100198.60;;;
79495;BMP180;68951;53.130;18.104;2023-07-29T22:42:18;100194.80;;;
79495;BMP180;68951;53.130;18.104;2023-07-29T22:44:45;100193.40;;;
79495;BMP180;68951;53.130;18.104;2023-07-29T22:47:12;100201.20;;;
79495;BMP180;68951;53.130;18.104;2023-07-29T22:49:39;100202.00;;;
79495;BMP180;68951;53.130;18.104;2023-07-29T22:52:06;100199.60;;;
79495;BMP180;68951;53.130;18.104;2023-07-29T22:54:33;100193.40;;;
79495;BMP180;68951;53.130;18.104;2023-07-29T22:56:59;100196.20;;;
79495;BMP180;68951;53.130;18.104;2023-07-29T22:59:26;100199.40;;;
79495;BMP180;68951;53.130;18.104;2023-07-29T23:01:53;100195.60;;;
79495;BMP180;68951;53.130;18.104;2023-07-29T23:04:20;100194.40;;;
79495;BMP180;68951;53.130;18.104;2023-07-29T23:06:47;100195.40;;;
79495;BMP180;68951;53.130;18.104;2023-07-29T23:09:14;100199.20;;;
79495;BMP180;68951;53.130;18.104;2023-07-29T23:11:40;100196.80;;;
79495;BMP180;68951;53.130;18.104;2023-07-29T23:14:07;100201.20;;;
79495;BMP180;68951;53.130;18.104;2023-07-29T23:16:34;100205.40;;;
79495;BMP180;68951;53.130;18.104;2023-07-29T23:19:01;100206.20;;;
79495;BMP180;68951;53.130;18.104;2023-07-29T23:21:27;100205.20;;;
79495;BMP180;68951;53.130;18.104;2023-07-29T23:23:54;100206.20;;;
79495;BMP180;68951;53.130;18.104;2023-07-29T23:26:21;100211.20;;;
79495;BMP180;68951;53.130;18.104;2023-07-29T23:28:48;100207.60;;;
79495;BMP180;68951;53.130;18.104;2023-07-29T23:31:14;100210.40;;;
79495;BMP180;68951;53.130;18.104;2023-07-29T23:33:41;100207.60;;;
79495;BMP180;68951;53.130;18.104;2023-07-29T23:36:08;100208.60;;;
79495;BMP180;68951;53.130;18.104;2023-07-29T23:38:34;100208.00;;;
79495;BMP180;68951;53.130;18.104;2023-07-29T23:41:01;100207.20;;;
79495;BMP180;68951;53.130;18.104;2023-07-29T23:43:28;100212.80;;;
79495;BMP180;68951;53.130;18.104;2023-07-29T23:45:55;100214.80;;;
79495;BMP180;68951;53.130;18.104;2023-07-29T23:48:22;100212.60;;;
79495;BMP180;68951;53.130;18.104;2023-07-29T23:50:48;100210.60;;;
79495;BMP180;68951;53.130;18.104;2023-07-29T23:53:15;100212.60;;;
79495;BMP180;68951;53.130;18.104;2023-07-29T23:55:42;100214.60;;;
79495;BMP180;68951;53.130;18.104;2023-07-29T23:58:09;100221.00;;;
